< < Back
Terminal Aerodrome Forecast


Current Version              Previous Versions:   1  2  3  4  5  6  7  8  9  

Terminal Aerodrome Forecast

039
FTAK31 PAJN 252300
TAFAHN
TAF
PAHN 252325Z 2600/2624 14008KT P6SM SCT150
     FM260600 VRB04KT P6SM SCT120
     FM262000 15007KT P6SM SCT050
      AMD LTD TO CLD VIS AND WIND=



Latest METAR

547
SAUS70 KWBC 260300
MTRAHN
METAR KAHN 260251Z AUTO 00000KT 10SM FEW022 BKN044 OVC085 23/21 A3023
RMK AO2 LTG DSNT NW SLP231 60001 T02280206 51012


USA.gov is the U.S. government's official web portal to all federal, state and local government web resources and services.